Time;durP1;ratioP1;P1;durP2;ratioP2;P2;SDS_P1;SDS_P2;PMS_P1;PMS_P2;Temp;Humidity;BMP_temperature;BMP_pressure;BME280_temperature;BME280_humidity;BME280_pressure;Samples;Min_cycle;Max_cycle;Signal;HPM_P1;HPM_P2
2021/12/27 00:00:17;;;;;;;6.45;5.25;;;6.60;99.90;;;;;;5045986;28;20638;-75
2021/12/27 00:02:44;;;;;;;7.00;5.95;;;6.60;99.90;;;;;;5046009;28;20300;-74
2021/12/27 00:05:11;;;;;;;6.13;5.53;;;6.60;99.90;;;;;;5045862;28;20699;-75
2021/12/27 00:07:38;;;;;;;6.53;5.55;;;6.60;99.90;;;;;;5046137;28;20331;-75
2021/12/27 00:10:06;;;;;;;6.68;5.45;;;6.60;99.90;;;;;;5046036;28;20213;-74
2021/12/27 00:12:33;;;;;;;6.93;5.35;;;6.60;99.90;;;;;;5045654;28;20574;-74
2021/12/27 00:15:00;;;;;;;6.75;5.20;;;6.60;99.90;;;;;;5045886;28;20607;-74
2021/12/27 00:17:28;;;;;;;7.80;6.20;;;6.60;99.90;;;;;;5046436;28;20212;-74
2021/12/27 00:19:56;;;;;;;6.90;6.03;;;6.60;99.90;;;;;;5047149;28;20201;-74
2021/12/27 00:22:23;;;;;;;7.78;6.78;;;6.60;99.90;;;;;;5046116;28;20618;-74
2021/12/27 00:24:50;;;;;;;6.70;5.97;;;6.60;99.90;;;;;;5047618;28;20221;-75
2021/12/27 00:27:18;;;;;;;9.05;6.03;;;6.60;99.90;;;;;;5046880;28;20217;-75
2021/12/27 00:29:46;;;;;;;7.32;6.00;;;6.60;99.90;;;;;;5047043;28;20201;-75
2021/12/27 00:32:13;;;;;;;7.60;6.00;;;6.60;99.90;;;;;;5046469;28;20212;-74
2021/12/27 00:34:41;;;;;;;7.18;5.88;;;6.60;99.90;;;;;;5047426;28;20612;-74
2021/12/27 00:37:09;;;;;;;9.02;6.60;;;6.60;99.90;;;;;;5046858;28;20583;-75
2021/12/27 00:39:36;;;;;;;8.30;6.25;;;6.60;99.90;;;;;;5047168;28;20216;-74
2021/12/27 00:42:04;;;;;;;10.15;7.18;;;6.50;99.90;;;;;;5046450;28;20212;-75
2021/12/27 00:44:31;;;;;;;7.85;6.57;;;6.50;99.90;;;;;;5046597;28;20225;-74
2021/12/27 00:46:58;;;;;;;8.85;6.95;;;6.50;99.90;;;;;;5047687;28;20722;-75
2021/12/27 00:49:25;;;;;;;9.60;7.00;;;6.50;99.90;;;;;;5047693;28;20788;-75
2021/12/27 00:51:53;;;;;;;9.75;6.78;;;6.50;99.90;;;;;;5047373;28;20653;-74
2021/12/27 00:54:20;;;;;;;12.38;7.22;;;6.40;99.90;;;;;;5049026;28;20222;-75
2021/12/27 00:56:47;;;;;;;9.23;7.45;;;6.40;99.90;;;;;;5050437;28;20240;-74
2021/12/27 00:59:14;;;;;;;9.75;7.50;;;6.40;99.90;;;;;;5049260;28;20217;-75
2021/12/27 01:01:40;;;;;;;11.73;8.25;;;6.40;99.90;;;;;;5045607;28;20200;-75
2021/12/27 01:04:08;;;;;;;9.48;7.53;;;6.40;99.90;;;;;;5048777;28;20236;-75
2021/12/27 01:06:35;;;;;;;9.43;7.65;;;6.40;99.90;;;;;;5049067;28;20227;-75
2021/12/27 01:09:03;;;;;;;9.95;7.22;;;6.40;99.90;;;;;;5049317;28;20225;-75
2021/12/27 01:11:40;;;;;;;8.70;7.65;;;6.40;99.90;;;;;;5048313;28;20254;-74
2021/12/27 01:14:12;;;;;;;10.70;8.43;;;6.40;99.90;;;;;;5048674;28;20221;-75
2021/12/27 01:16:39;;;;;;;10.38;8.60;;;6.30;99.90;;;;;;5049232;28;20205;-74
2021/12/27 01:19:06;;;;;;;10.18;7.95;;;6.20;99.90;;;;;;5048681;28;20212;-75
2021/12/27 01:21:34;;;;;;;9.40;7.45;;;6.20;99.90;;;;;;5047743;28;20209;-74
2021/12/27 01:24:03;;;;;;;8.10;7.30;;;6.20;99.90;;;;;;5048755;28;20240;-73
2021/12/27 01:26:30;;;;;;;9.48;7.75;;;6.10;99.90;;;;;;5048627;28;20208;-74
2021/12/27 01:28:59;;;;;;;8.75;7.22;;;6.10;99.90;;;;;;5047952;28;20228;-75
2021/12/27 01:31:26;;;;;;;11.23;8.52;;;6.10;99.90;;;;;;5047563;28;20212;-74
2021/12/27 01:33:53;;;;;;;9.30;7.80;;;6.00;99.90;;;;;;5048124;28;20236;-74
2021/12/27 01:36:20;;;;;;;12.98;9.20;;;6.00;99.90;;;;;;5048468;28;20205;-74
2021/12/27 01:38:48;;;;;;;11.27;8.77;;;6.00;99.90;;;;;;5047894;28;20208;-74
2021/12/27 01:41:18;;;;;;;10.75;7.20;;;5.90;99.90;;;;;;5047081;28;20214;-75
2021/12/27 01:43:45;;;;;;;10.07;7.85;;;5.90;99.90;;;;;;5047183;28;20252;-75
2021/12/27 01:46:15;;;;;;;10.85;8.00;;;5.90;99.90;;;;;;5047864;28;20672;-74
2021/12/27 01:48:45;;;;;;;10.77;7.70;;;5.90;99.90;;;;;;5047394;28;20228;-74
2021/12/27 01:51:14;;;;;;;11.60;7.82;;;5.90;99.90;;;;;;5047211;28;20287;-75
2021/12/27 01:53:43;;;;;;;9.85;7.63;;;5.80;99.90;;;;;;5046998;28;20229;-75
2021/12/27 01:56:12;;;;;;;10.40;8.32;;;5.80;99.90;;;;;;5047895;28;20205;-75
2021/12/27 01:58:40;;;;;;;11.18;7.28;;;5.80;99.90;;;;;;5047468;28;20197;-76
2021/12/27 02:01:09;;;;;;;9.90;7.57;;;5.80;99.90;;;;;;5046838;28;20204;-74
2021/12/27 02:03:38;;;;;;;8.88;7.20;;;5.80;99.90;;;;;;5047038;28;20236;-75
2021/12/27 02:06:05;;;;;;;9.90;7.82;;;5.80;99.90;;;;;;5047300;28;20216;-75
2021/12/27 02:08:33;;;;;;;9.40;6.90;;;5.80;99.90;;;;;;5047108;28;20340;-75
2021/12/27 02:11:00;;;;;;;10.85;8.65;;;5.80;99.90;;;;;;5047648;28;20205;-74
2021/12/27 02:13:26;;;;;;;10.38;7.70;;;5.80;99.90;;;;;;5047797;28;20221;-74
2021/12/27 02:15:54;;;;;;;8.73;7.78;;;5.80;99.90;;;;;;5048491;28;20218;-77
2021/12/27 02:18:22;;;;;;;10.85;7.82;;;5.80;99.90;;;;;;5069478;22;20727;-94
2021/12/27 02:20:50;;;;;;;10.02;7.43;;;5.80;99.90;;;;;;5056019;22;20618;-73
2021/12/27 02:23:18;;;;;;;12.98;7.32;;;5.80;99.90;;;;;;5049509;28;20282;-72
2021/12/27 02:25:48;;;;;;;7.97;6.65;;;5.70;99.90;;;;;;5051642;28;20205;-73
2021/12/27 02:28:16;;;;;;;9.20;7.30;;;5.70;99.90;;;;;;5051505;28;20229;-73
2021/12/27 02:30:44;;;;;;;8.02;6.80;;;5.70;99.90;;;;;;5051577;28;20209;-72
2021/12/27 02:33:12;;;;;;;7.32;6.05;;;5.70;99.90;;;;;;5045218;28;20309;-73
2021/12/27 02:35:44;;;;;;;7.78;6.97;;;5.70;99.90;;;;;;5041070;28;20205;-73
2021/12/27 02:38:14;;;;;;;7.15;6.45;;;5.70;99.90;;;;;;5042271;28;20190;-73
2021/12/27 02:40:42;;;;;;;8.52;6.03;;;5.70;99.90;;;;;;5046836;28;20682;-72
2021/12/27 02:43:11;;;;;;;8.63;6.50;;;5.70;99.90;;;;;;5051036;28;20660;-73
2021/12/27 02:45:40;;;;;;;7.93;5.70;;;5.80;99.90;;;;;;5051113;28;20661;-73
2021/12/27 02:48:08;;;;;;;7.70;6.32;;;5.80;99.90;;;;;;5051396;28;20297;-73
2021/12/27 02:50:36;;;;;;;9.70;7.15;;;5.80;99.90;;;;;;5051168;28;20197;-73
2021/12/27 02:53:04;;;;;;;6.57;5.82;;;5.70;99.90;;;;;;5050828;28;20252;-72
2021/12/27 02:55:32;;;;;;;6.57;5.00;;;5.80;99.90;;;;;;5051125;28;20205;-73
2021/12/27 02:57:59;;;;;;;6.15;5.55;;;5.70;99.90;;;;;;5051247;28;20664;-73
2021/12/27 03:00:28;;;;;;;5.63;5.03;;;5.70;99.90;;;;;;5050920;28;20659;-73
2021/12/27 03:02:57;;;;;;;5.97;4.63;;;5.70;99.90;;;;;;5050533;28;20225;-73
2021/12/27 03:05:26;;;;;;;4.97;4.53;;;5.70;99.90;;;;;;5050845;28;20208;-72
2021/12/27 03:07:53;;;;;;;10.00;5.32;;;5.70;99.90;;;;;;5050910;28;20217;-72
2021/12/27 03:10:22;;;;;;;7.28;4.57;;;5.80;99.90;;;;;;5051240;28;20679;-73
2021/12/27 03:12:52;;;;;;;5.53;4.70;;;5.80;99.90;;;;;;5050346;28;20197;-72
2021/12/27 03:15:19;;;;;;;6.13;5.32;;;5.80;99.90;;;;;;5051096;28;20205;-72
2021/12/27 03:17:48;;;;;;;7.50;5.35;;;5.90;99.90;;;;;;5051104;28;20201;-73
2021/12/27 03:20:16;;;;;;;5.75;4.90;;;5.90;99.90;;;;;;5050884;28;20220;-73
2021/12/27 03:22:44;;;;;;;7.43;5.63;;;5.90;99.90;;;;;;5050150;28;20208;-73
2021/12/27 03:25:13;;;;;;;5.63;5.13;;;5.90;99.90;;;;;;5050513;28;20209;-73
2021/12/27 03:27:40;;;;;;;5.53;4.88;;;5.90;99.90;;;;;;5050669;28;20205;-73
2021/12/27 03:30:11;;;;;;;6.40;4.68;;;5.90;99.90;;;;;;5050919;28;20200;-73
2021/12/27 03:32:38;;;;;;;8.15;5.10;;;5.90;99.90;;;;;;5049988;28;20663;-73
2021/12/27 03:35:11;;;;;;;5.95;5.32;;;5.90;99.90;;;;;;5050867;28;20201;-73
2021/12/27 03:37:39;;;;;;;8.05;5.32;;;5.90;99.90;;;;;;5050608;28;20292;-72
2021/12/27 03:40:08;;;;;;;6.82;5.10;;;5.90;99.90;;;;;;5050795;28;20209;-72
2021/12/27 03:42:35;;;;;;;6.45;5.43;;;5.90;99.90;;;;;;5049581;28;20196;-72
2021/12/27 03:45:03;;;;;;;6.45;4.65;;;5.90;99.90;;;;;;5050791;28;20200;-72
2021/12/27 03:47:31;;;;;;;5.28;4.55;;;5.90;99.90;;;;;;5050409;28;20204;-72
2021/12/27 03:49:58;;;;;;;5.10;4.60;;;5.90;99.90;;;;;;5050843;28;20212;-72
2021/12/27 03:52:25;;;;;;;6.05;4.43;;;6.00;99.90;;;;;;5050336;28;20212;-72
2021/12/27 03:54:51;;;;;;;4.88;4.30;;;6.00;99.90;;;;;;5050601;28;20587;-73
2021/12/27 03:57:18;;;;;;;5.05;4.55;;;6.00;99.90;;;;;;5050463;28;20201;-73
2021/12/27 04:00:14;;;;;;;4.82;3.60;;;6.00;99.90;;;;;;5050425;28;20319;-73
2021/12/27 04:02:41;;;;;;;4.97;3.97;;;5.90;99.90;;;;;;5049589;28;20205;-73
2021/12/27 04:05:09;;;;;;;4.85;3.80;;;5.80;99.90;;;;;;5050487;28;20197;-72
2021/12/27 04:07:37;;;;;;;6.30;4.05;;;5.80;99.90;;;;;;5050172;28;20201;-73
2021/12/27 04:10:05;;;;;;;4.70;4.00;;;5.80;99.90;;;;;;5050605;28;20213;-72
2021/12/27 04:12:32;;;;;;;4.55;4.05;;;5.80;99.90;;;;;;5049656;28;20201;-72
2021/12/27 04:14:59;;;;;;;6.47;5.03;;;5.70;99.90;;;;;;5050386;28;20208;-73
2021/12/27 04:17:26;;;;;;;5.60;4.20;;;5.70;99.90;;;;;;5050553;28;20583;-73
2021/12/27 04:19:54;;;;;;;4.20;3.80;;;5.70;99.90;;;;;;5050416;28;20212;-72
2021/12/27 04:22:21;;;;;;;4.80;3.75;;;5.80;99.90;;;;;;5049792;28;20587;-72
2021/12/27 04:24:48;;;;;;;4.00;3.65;;;5.70;99.90;;;;;;5050089;28;20221;-73
2021/12/27 04:27:14;;;;;;;6.55;4.25;;;5.70;99.90;;;;;;5050251;28;20276;-73
2021/12/27 04:29:41;;;;;;;9.10;4.15;;;5.70;99.90;;;;;;5050020;28;20268;-72
2021/12/27 04:32:08;;;;;;;3.65;3.35;;;5.80;99.90;;;;;;5049828;28;20205;-72
2021/12/27 04:34:36;;;;;;;4.25;3.40;;;5.70;99.90;;;;;;5049954;28;20225;-72
2021/12/27 04:37:04;;;;;;;4.97;3.85;;;5.70;99.90;;;;;;5052090;28;20672;-72
2021/12/27 04:39:31;;;;;;;4.50;3.35;;;5.70;99.90;;;;;;5053800;28;20208;-71
2021/12/27 04:41:59;;;;;;;3.92;3.50;;;5.70;99.90;;;;;;5053562;28;20204;-71
2021/12/27 04:44:26;;;;;;;3.83;3.40;;;5.80;99.90;;;;;;5053879;28;20315;-71
2021/12/27 04:46:53;;;;;;;4.30;3.90;;;5.80;99.90;;;;;;5054023;28;20197;-71
2021/12/27 04:49:20;;;;;;;4.90;3.70;;;5.80;99.90;;;;;;5053830;28;20221;-71
2021/12/27 04:51:47;;;;;;;5.07;3.63;;;5.80;99.90;;;;;;5053233;28;20204;-74
2021/12/27 04:54:15;;;;;;;4.38;3.97;;;5.90;99.90;;;;;;5053724;28;20221;-71
2021/12/27 04:56:42;;;;;;;3.60;3.30;;;5.90;99.90;;;;;;5052178;28;20204;-71
2021/12/27 04:59:10;;;;;;;3.55;3.25;;;5.90;99.90;;;;;;5049526;28;20197;-71
2021/12/27 05:01:38;;;;;;;4.45;3.30;;;5.80;99.90;;;;;;5043453;28;20197;-71
2021/12/27 05:04:05;;;;;;;3.60;3.20;;;5.80;99.90;;;;;;5052985;28;20249;-71
2021/12/27 05:06:32;;;;;;;4.38;3.63;;;5.90;99.90;;;;;;5053238;28;20363;-71
2021/12/27 05:08:59;;;;;;;4.35;2.88;;;5.90;99.90;;;;;;5053182;28;20220;-73
2021/12/27 05:11:27;;;;;;;4.15;3.15;;;5.80;99.90;;;;;;5053295;28;20201;-73
2021/12/27 05:13:53;;;;;;;3.38;3.05;;;5.90;99.90;;;;;;5052181;28;20229;-71
2021/12/27 05:16:20;;;;;;;3.50;3.20;;;5.90;99.90;;;;;;5053378;28;20201;-71
2021/12/27 05:18:47;;;;;;;3.30;3.00;;;5.90;99.90;;;;;;5052775;28;20668;-71
2021/12/27 05:21:14;;;;;;;3.83;3.03;;;5.90;99.90;;;;;;5052274;28;20209;-74
2021/12/27 05:23:40;;;;;;;3.35;3.05;;;5.90;99.90;;;;;;5052393;28;20366;-71
2021/12/27 05:26:07;;;;;;;3.80;3.40;;;5.90;99.90;;;;;;5052693;28;20228;-71
2021/12/27 05:28:35;;;;;;;3.10;2.80;;;5.90;99.90;;;;;;5051966;28;20948;-71
2021/12/27 05:31:02;;;;;;;4.55;3.33;;;5.90;99.90;;;;;;5051905;28;20204;-72
2021/12/27 05:33:29;;;;;;;3.38;3.08;;;5.90;99.90;;;;;;5051997;28;20225;-71
2021/12/27 05:35:56;;;;;;;4.72;3.17;;;6.00;99.90;;;;;;5053051;28;20200;-72
2021/12/27 05:38:23;;;;;;;4.00;3.20;;;5.90;99.90;;;;;;5052296;28;20209;-71
2021/12/27 05:40:49;;;;;;;3.42;3.10;;;5.90;99.90;;;;;;5052589;28;20213;-72
2021/12/27 05:43:16;;;;;;;4.10;3.20;;;6.00;99.90;;;;;;5052574;28;20232;-72
2021/12/27 05:45:44;;;;;;;3.45;3.15;;;6.00;99.90;;;;;;5051947;28;20201;-71
2021/12/27 05:48:11;;;;;;;3.28;3.00;;;5.90;99.90;;;;;;5051853;28;20208;-71
2021/12/27 05:50:38;;;;;;;3.50;3.20;;;5.90;99.90;;;;;;5052018;28;20197;-72
2021/12/27 05:53:05;;;;;;;3.80;3.08;;;5.90;99.90;;;;;;5052407;28;20359;-71
2021/12/27 05:55:32;;;;;;;3.45;2.92;;;5.90;99.90;;;;;;5051826;28;20208;-72
2021/12/27 05:57:59;;;;;;;3.95;3.55;;;5.90;99.90;;;;;;5052464;28;20201;-72
2021/12/27 06:00:26;;;;;;;3.65;3.08;;;5.90;99.90;;;;;;5051767;28;20205;-71
2021/12/27 06:02:54;;;;;;;3.50;3.20;;;5.80;99.90;;;;;;5050912;28;20221;-72
2021/12/27 06:05:22;;;;;;;4.32;3.25;;;5.80;99.90;;;;;;5052206;28;20278;-72
2021/12/27 06:07:49;;;;;;;4.18;3.40;;;5.70;99.90;;;;;;5051662;28;20228;-72
2021/12/27 06:10:17;;;;;;;3.10;2.80;;;5.70;99.90;;;;;;5051703;28;20717;-72
2021/12/27 06:12:44;;;;;;;3.90;3.50;;;5.60;99.90;;;;;;5050708;28;20575;-72
2021/12/27 06:15:11;;;;;;;4.22;3.50;;;5.50;99.90;;;;;;5051847;28;20201;-72
2021/12/27 06:17:39;;;;;;;3.20;2.90;;;5.50;99.90;;;;;;5051100;28;20205;-72
2021/12/27 06:20:09;;;;;;;3.85;3.17;;;5.40;99.90;;;;;;5047342;28;20204;-72
2021/12/27 06:22:37;;;;;;;3.83;3.00;;;5.30;99.90;;;;;;5030747;28;20208;-72
2021/12/27 06:25:05;;;;;;;3.13;2.80;;;5.20;99.90;;;;;;5031614;28;20550;-71
2021/12/27 06:27:32;;;;;;;4.40;3.13;;;5.10;99.90;;;;;;5031228;28;20228;-72
2021/12/27 06:29:59;;;;;;;3.25;2.72;;;5.00;99.90;;;;;;5031381;28;20232;-74
2021/12/27 06:32:26;;;;;;;3.00;2.70;;;4.90;99.90;;;;;;5030717;28;20570;-71
2021/12/27 06:34:53;;;;;;;3.80;3.50;;;4.80;99.90;;;;;;5031460;28;20218;-72
2021/12/27 06:37:21;;;;;;;2.83;2.53;;;4.80;99.90;;;;;;5031310;28;20202;-73
2021/12/27 06:39:48;;;;;;;2.38;2.17;;;4.70;99.90;;;;;;5030909;28;20206;-72
2021/12/27 06:42:15;;;;;;;3.20;2.90;;;4.60;99.90;;;;;;5041394;28;20212;-73
2021/12/27 06:44:42;;;;;;;3.60;3.30;;;4.50;99.90;;;;;;5050813;28;20213;-73
2021/12/27 06:47:09;;;;;;;3.22;2.92;;;4.50;99.90;;;;;;5051694;28;20205;-73
2021/12/27 06:49:37;;;;;;;3.28;2.90;;;4.40;99.90;;;;;;5051352;28;20715;-73
2021/12/27 06:52:05;;;;;;;3.50;3.20;;;4.30;99.90;;;;;;5050858;28;20205;-73
2021/12/27 06:54:33;;;;;;;2.90;2.40;;;4.30;99.90;;;;;;5051139;28;20245;-72
2021/12/27 06:57:00;;;;;;;3.05;2.40;;;4.20;99.90;;;;;;5051423;28;20621;-73
2021/12/27 06:59:27;;;;;;;8.07;3.38;;;4.10;99.90;;;;;;5050436;28;20227;-72
2021/12/27 07:01:54;;;;;;;5.05;2.42;;;4.10;99.90;;;;;;5050904;28;20233;-72
2021/12/27 07:04:21;;;;;;;5.90;2.70;;;4.00;99.90;;;;;;5051058;28;20731;-72
2021/12/27 07:06:48;;;;;;;2.72;2.53;;;3.90;99.90;;;;;;5051131;28;20208;-72
2021/12/27 07:09:15;;;;;;;2.30;2.10;;;3.80;99.90;;;;;;5051577;28;20579;-72
2021/12/27 07:11:43;;;;;;;2.50;2.03;;;3.80;99.90;;;;;;5050541;28;20209;-73
2021/12/27 07:14:10;;;;;;;2.35;2.15;;;3.70;99.90;;;;;;5051129;28;20232;-72
2021/12/27 07:16:36;;;;;;;2.58;2.38;;;3.70;99.90;;;;;;5051062;28;20207;-73
2021/12/27 07:19:03;;;;;;;3.40;3.10;;;3.70;99.90;;;;;;5051013;28;20601;-72
2021/12/27 07:21:30;;;;;;;20.52;4.60;;;3.60;99.90;;;;;;5050370;28;20204;-72
2021/12/27 07:23:57;;;;;;;3.80;3.40;;;3.60;99.90;;;;;;5050825;28;20217;-72
2021/12/27 07:26:23;;;;;;;3.58;3.00;;;3.60;99.90;;;;;;5050972;28;20698;-73
2021/12/27 07:28:51;;;;;;;5.40;3.53;;;3.60;99.90;;;;;;5050788;28;20208;-73
2021/12/27 07:31:18;;;;;;;4.47;3.65;;;3.60;99.90;;;;;;5049861;28;20499;-74
2021/12/27 07:33:45;;;;;;;5.10;3.13;;;3.60;99.90;;;;;;5050507;28;20220;-74
2021/12/27 07:36:12;;;;;;;3.20;2.95;;;3.60;99.90;;;;;;5050862;28;20201;-74
2021/12/27 07:38:40;;;;;;;4.03;3.53;;;3.70;99.90;;;;;;5050622;28;20212;-74
2021/12/27 07:41:07;;;;;;;4.05;3.65;;;3.70;99.90;;;;;;5050378;28;20691;-73
2021/12/27 07:43:34;;;;;;;6.65;3.58;;;3.70;99.90;;;;;;5050393;28;20229;-73
2021/12/27 07:46:02;;;;;;;4.22;3.83;;;3.70;99.90;;;;;;5050771;28;20201;-74
2021/12/27 07:48:29;;;;;;;4.32;3.92;;;3.80;99.90;;;;;;5050859;28;20201;-73
2021/12/27 07:50:56;;;;;;;7.05;3.85;;;3.90;99.90;;;;;;5049796;28;20225;-73
2021/12/27 07:53:23;;;;;;;4.20;3.50;;;3.90;99.90;;;;;;5050387;28;20229;-73
2021/12/27 07:55:50;;;;;;;4.38;3.60;;;4.00;99.90;;;;;;5050053;28;20676;-73
2021/12/27 07:58:17;;;;;;;4.25;3.78;;;4.00;99.90;;;;;;5035291;28;20200;-73
2021/12/27 08:00:45;;;;;;;3.50;3.20;;;4.10;99.90;;;;;;5030302;28;20661;-73
2021/12/27 08:03:13;;;;;;;4.43;4.03;;;4.30;99.90;;;;;;5030004;28;20637;-73
2021/12/27 08:05:40;;;;;;;4.15;3.63;;;4.60;99.90;;;;;;5031147;28;20276;-74
2021/12/27 08:08:07;;;;;;;4.38;3.97;;;5.20;99.90;;;;;;5035622;28;20205;-73
2021/12/27 08:10:34;;;;;;;5.00;3.90;;;5.70;99.90;;;;;;5048754;28;20224;-73
2021/12/27 08:13:01;;;;;;;3.50;3.20;;;6.30;99.90;;;;;;5052753;28;20223;-73
2021/12/27 08:15:29;;;;;;;2.83;2.60;;;6.80;99.90;;;;;;5053042;28;20219;-74
2021/12/27 08:17:56;;;;;;;2.95;2.70;;;7.20;99.90;;;;;;5053083;28;20196;-74
2021/12/27 08:20:24;;;;;;;3.72;2.95;;;7.50;99.90;;;;;;5052825;28;20213;-74
2021/12/27 08:22:51;;;;;;;2.97;2.78;;;7.80;99.90;;;;;;5049487;28;21584;-74
2021/12/27 08:25:18;;;;;;;5.05;3.33;;;8.10;99.90;;;;;;5053227;28;20204;-74
2021/12/27 08:27:46;;;;;;;3.25;2.95;;;8.50;99.90;;;;;;5052978;28;20207;-74
2021/12/27 08:30:14;;;;;;;3.33;3.03;;;9.00;99.90;;;;;;5052732;28;20224;-74
2021/12/27 08:32:45;;;;;;;3.45;3.10;;;9.40;99.90;;;;;;5052307;28;20212;-74
2021/12/27 08:35:12;;;;;;;3.30;3.00;;;9.70;99.90;;;;;;5052867;28;20200;-73
2021/12/27 08:37:41;;;;;;;3.17;2.80;;;9.80;99.90;;;;;;5052839;28;20566;-73
2021/12/27 08:40:10;;;;;;;2.88;2.67;;;9.90;99.90;;;;;;5052721;28;20200;-73
2021/12/27 08:42:36;;;;;;;3.35;3.05;;;9.80;99.90;;;;;;5052476;28;20205;-74
2021/12/27 08:45:04;;;;;;;3.42;3.13;;;9.50;99.90;;;;;;5052768;28;20205;-73
2021/12/27 08:47:31;;;;;;;3.80;3.50;;;9.20;99.90;;;;;;5052764;28;20209;-73
2021/12/27 08:49:59;;;;;;;3.50;3.20;;;8.80;99.90;;;;;;5053117;28;20225;-73
2021/12/27 08:52:26;;;;;;;3.40;3.10;;;8.70;99.90;;;;;;5051958;28;20898;-73
2021/12/27 08:54:54;;;;;;;3.38;3.08;;;8.60;99.90;;;;;;5052978;28;20249;-73
2021/12/27 08:57:21;;;;;;;4.78;4.10;;;8.50;99.90;;;;;;5052568;28;20204;-73
2021/12/27 08:59:48;;;;;;;4.63;4.22;;;8.10;99.90;;;;;;5052598;28;20197;-73
2021/12/27 09:02:15;;;;;;;4.88;4.30;;;7.90;99.90;;;;;;5051942;28;20204;-73
2021/12/27 09:04:43;;;;;;;4.90;4.30;;;7.90;99.90;;;;;;5052819;28;20704;-73
2021/12/27 09:07:12;;;;;;;5.72;4.38;;;7.90;99.90;;;;;;5052545;28;20201;-73
2021/12/27 09:09:39;;;;;;;4.25;3.85;;;7.70;99.90;;;;;;5052742;28;20559;-73
2021/12/27 09:12:09;;;;;;;3.97;3.58;;;7.40;99.90;;;;;;5052277;28;20478;-73
2021/12/27 09:14:36;;;;;;;5.28;4.45;;;7.30;99.90;;;;;;5052155;28;20224;-73
2021/12/27 09:17:03;;;;;;;5.35;4.22;;;7.20;99.90;;;;;;5052734;28;20209;-73
2021/12/27 09:19:30;;;;;;;4.28;3.85;;;7.40;99.90;;;;;;5050650;28;20526;-73
2021/12/27 09:21:56;;;;;;;5.43;4.88;;;7.60;99.90;;;;;;5050815;28;20664;-73
2021/12/27 09:24:23;;;;;;;4.63;4.07;;;7.90;99.90;;;;;;5052298;28;20231;-74
2021/12/27 09:26:50;;;;;;;4.15;3.55;;;8.30;99.90;;;;;;5052921;28;20205;-74
2021/12/27 09:29:18;;;;;;;4.35;3.95;;;8.60;99.90;;;;;;5051334;28;20212;-72
2021/12/27 09:31:45;;;;;;;5.95;4.35;;;9.50;99.90;;;;;;5051867;28;20572;-73
2021/12/27 09:34:12;;;;;;;4.13;3.72;;;10.90;99.90;;;;;;5052208;28;20216;-73
2021/12/27 09:36:39;;;;;;;4.78;4.00;;;12.50;99.90;;;;;;5051541;28;20579;-73
2021/12/27 09:39:06;;;;;;;5.32;4.82;;;12.50;99.90;;;;;;5051856;28;20216;-72
2021/12/27 09:41:33;;;;;;;4.15;3.70;;;12.60;99.90;;;;;;5051008;28;20202;-74
2021/12/27 09:44:00;;;;;;;4.75;3.90;;;13.20;99.90;;;;;;5051480;28;20630;-74
2021/12/27 09:46:28;;;;;;;3.80;3.28;;;13.20;99.90;;;;;;5051917;28;20204;-73
2021/12/27 09:48:58;;;;;;;4.60;3.42;;;13.70;99.90;;;;;;5049594;28;20197;-74
2021/12/27 09:51:26;;;;;;;4.25;3.53;;;14.80;99.90;;;;;;5050835;28;20221;-74
2021/12/27 09:53:53;;;;;;;4.80;3.70;;;14.20;99.90;;;;;;5051651;28;20217;-74
2021/12/27 09:56:20;;;;;;;4.15;3.22;;;13.40;99.90;;;;;;5051781;28;20201;-74
2021/12/27 09:58:47;;;;;;;3.55;3.10;;;12.90;99.90;;;;;;5051094;28;20207;-74
2021/12/27 10:01:15;;;;;;;3.70;3.40;;;12.30;99.90;;;;;;5051358;28;20201;-74
2021/12/27 10:03:49;;;;;;;3.70;3.40;;;11.80;99.90;;;;;;5051751;28;20273;-74
2021/12/27 10:06:16;;;;;;;3.78;3.00;;;11.70;99.90;;;;;;5051548;28;20308;-74
2021/12/27 10:08:47;;;;;;;3.50;3.20;;;13.50;99.90;;;;;;5051441;28;20231;-74
2021/12/27 10:11:22;;;;;;;2.77;2.53;;;15.90;99.90;;;;;;5049197;28;20217;-74
2021/12/27 10:14:04;;;;;;;2.90;2.70;;;18.10;99.90;;;;;;5051355;28;20486;-75
2021/12/27 10:16:32;;;;;;;3.10;2.73;;;19.80;99.90;;;;;;5051072;28;20506;-75
2021/12/27 10:19:03;;;;;;;2.50;2.30;;;20.40;99.90;;;;;;5051029;28;20459;-75
2021/12/27 10:21:30;;;;;;;3.50;2.50;;;21.30;99.90;;;;;;5050208;28;21157;-75
2021/12/27 10:24:04;;;;;;;2.53;2.33;;;22.40;99.10;;;;;;5051463;28;21002;-75
2021/12/27 10:26:32;;;;;;;2.50;2.30;;;23.30;98.20;;;;;;5050135;28;20458;-75
2021/12/27 10:29:17;;;;;;;2.73;2.53;;;22.40;96.70;;;;;;5050848;28;20463;-73
2021/12/27 10:31:52;;;;;;;2.30;2.10;;;22.10;96.60;;;;;;5050720;28;20858;-74
2021/12/27 10:34:21;;;;;;;2.43;2.23;;;21.10;97.90;;;;;;5050978;28;20561;-73
2021/12/27 10:37:15;;;;;;;2.47;2.17;;;21.10;98.10;;;;;;5051110;28;20451;-74
2021/12/27 10:39:49;;;;;;;2.30;2.10;;;21.10;98.50;;;;;;5050534;28;20459;-74
2021/12/27 10:42:19;;;;;;;2.83;2.63;;;21.40;98.00;;;;;;5050192;28;20478;-74
2021/12/27 10:44:48;;;;;;;2.53;2.33;;;22.10;97.50;;;;;;5036740;28;20475;-74
2021/12/27 10:47:30;;;;;;;4.60;2.43;;;22.40;96.70;;;;;;5051008;28;20463;-74
2021/12/27 10:50:03;;;;;;;2.60;2.40;;;21.60;96.20;;;;;;5050741;28;20464;-73
2021/12/27 10:52:48;;;;;;;2.43;2.23;;;20.40;97.80;;;;;;5049968;28;20459;-73
2021/12/27 10:55:18;;;;;;;2.83;2.53;;;20.10;98.10;;;;;;5049657;28;20550;-73
2021/12/27 10:57:45;;;;;;;2.70;2.40;;;20.20;98.30;;;;;;5049868;28;20452;-73
2021/12/27 11:00:18;;;;;;;2.60;2.33;;;20.70;97.40;;;;;;5050493;28;20455;-74
2021/12/27 11:02:45;;;;;;;2.30;2.10;;;20.90;98.10;;;;;;5048888;28;20517;-74
2021/12/27 11:05:14;;;;;;;2.47;2.20;;;20.80;98.90;;;;;;5049867;28;20996;-74
2021/12/27 11:07:42;;;;;;;2.50;2.30;;;20.30;97.90;;;;;;5049795;28;20459;-74
2021/12/27 11:10:09;;;;;;;2.60;2.23;;;19.80;98.20;;;;;;5050128;28;20536;-74
2021/12/27 11:12:36;;;;;;;1.83;1.67;;;18.80;99.10;;;;;;5048429;28;20475;-74
2021/12/27 11:15:09;;;;;;;2.20;2.00;;;18.70;99.90;;;;;;5048658;28;20467;-74
2021/12/27 11:17:36;;;;;;;2.07;1.97;;;18.80;99.90;;;;;;5044841;28;20463;-73
2021/12/27 11:20:05;;;;;;;3.10;2.63;;;17.50;99.90;;;;;;5046809;28;20486;-75
2021/12/27 11:22:33;;;;;;;3.23;2.40;;;16.10;99.90;;;;;;5037638;28;21044;-73
2021/12/27 11:25:05;;;;;;;2.33;2.13;;;14.80;99.90;;;;;;5047899;28;20474;-74
2021/12/27 11:27:35;;;;;;;2.50;2.20;;;13.90;99.90;;;;;;5050660;28;20463;-74
2021/12/27 11:30:12;;;;;;;2.90;2.47;;;13.50;99.90;;;;;;5048886;28;20862;-73
2021/12/27 11:33:12;;;;;;;2.60;2.40;;;12.80;99.90;;;;;;5048492;28;20467;-75
2021/12/27 11:36:02;;;;;;;2.25;2.05;;;12.10;99.90;;;;;;5048105;28;20486;-74
2021/12/27 11:38:32;;;;;;;3.00;2.70;;;11.80;99.90;;;;;;5048846;28;20254;-74
2021/12/27 11:41:00;;;;;;;2.50;2.20;;;12.20;99.90;;;;;;5048481;28;20204;-74
2021/12/27 11:43:49;;;;;;;2.67;2.47;;;12.50;99.90;;;;;;5048858;28;20229;-74
2021/12/27 11:46:16;;;;;;;2.47;2.28;;;12.60;99.90;;;;;;5048475;28;20236;-74
2021/12/27 11:48:49;;;;;;;2.80;2.55;;;12.60;99.90;;;;;;5048215;28;20205;-74
2021/12/27 11:51:18;;;;;;;2.90;2.60;;;12.40;99.90;;;;;;5048931;28;20229;-74
2021/12/27 11:53:53;;;;;;;3.30;3.00;;;12.30;99.90;;;;;;5043901;28;20810;-74
2021/12/27 11:56:57;;;;;;;2.90;2.60;;;12.10;99.90;;;;;;5046673;28;20288;-74
2021/12/27 11:59:31;;;;;;;2.63;2.33;;;11.50;99.90;;;;;;5048801;28;20251;-74
2021/12/27 12:02:00;;;;;;;2.45;2.25;;;11.30;99.90;;;;;;5047955;28;20201;-74
2021/12/27 12:04:41;;;;;;;2.60;2.40;;;11.20;99.90;;;;;;5047418;28;20225;-74
2021/12/27 12:07:08;;;;;;;2.83;2.63;;;11.00;99.90;;;;;;5049000;28;20212;-74
2021/12/27 12:09:45;;;;;;;3.28;2.58;;;10.90;99.90;;;;;;5047731;28;20240;-74
2021/12/27 12:12:13;;;;;;;2.65;2.45;;;11.00;99.90;;;;;;5048021;28;20274;-74
2021/12/27 12:14:40;;;;;;;3.05;2.40;;;10.80;99.90;;;;;;5047340;28;20609;-74
2021/12/27 12:17:10;;;;;;;3.05;2.75;;;10.60;99.90;;;;;;5047753;28;20227;-74
2021/12/27 12:19:42;;;;;;;3.22;2.92;;;10.50;99.90;;;;;;5046988;28;20208;-74
2021/12/27 12:22:34;;;;;;;2.50;2.30;;;10.40;99.90;;;;;;5047648;28;20688;-74
2021/12/27 12:25:24;;;;;;;2.90;2.50;;;10.40;99.90;;;;;;5048837;28;20258;-74
2021/12/27 12:27:54;;;;;;;2.75;2.53;;;10.20;99.90;;;;;;5043873;28;20664;-73
2021/12/27 12:30:21;;;;;;;2.88;2.40;;;10.10;99.90;;;;;;5211939;22;20237;-72
2021/12/27 12:32:59;;;;;;;2.70;2.50;;;10.20;99.90;;;;;;5048248;28;20208;-72
2021/12/27 12:35:39;;;;;;;2.78;2.45;;;10.10;99.90;;;;;;5049324;28;20205;-72
2021/12/27 12:38:15;;;;;;;3.20;2.90;;;10.10;99.90;;;;;;5048592;28;20693;-73
2021/12/27 12:40:45;;;;;;;2.92;2.70;;;10.00;99.90;;;;;;5048914;28;20200;-72
2021/12/27 12:43:12;;;;;;;3.42;3.05;;;9.90;99.90;;;;;;5047872;28;20700;-72
2021/12/27 12:45:39;;;;;;;2.67;2.47;;;9.90;99.90;;;;;;5045155;28;20198;-72
2021/12/27 12:48:07;;;;;;;2.95;2.53;;;10.00;99.90;;;;;;5048569;28;20202;-72
2021/12/27 12:50:35;;;;;;;2.88;2.65;;;10.00;99.90;;;;;;5048667;28;20255;-72
2021/12/27 12:53:05;;;;;;;3.47;3.17;;;10.00;99.90;;;;;;5048166;28;20599;-72
2021/12/27 12:55:34;;;;;;;2.72;2.50;;;10.10;99.90;;;;;;5049128;28;20201;-72
2021/12/27 12:58:03;;;;;;;2.95;2.75;;;10.10;99.90;;;;;;5049939;28;20668;-72
2021/12/27 13:00:32;;;;;;;3.30;2.65;;;10.00;99.90;;;;;;5049590;28;20208;-72